createdAt,value
2018-08-25T00:04:12.738Z,14.21
2018-08-25T00:06:46.019Z,14.21
2018-08-25T00:11:55.605Z,14.08
2018-08-25T00:14:28.575Z,14.08
2018-08-25T00:17:02.475Z,13.98
2018-08-25T00:22:13.350Z,14.02
2018-08-25T00:24:46.000Z,14.02
2018-08-25T00:27:20.112Z,14.04
2018-08-25T00:29:53.569Z,14.03
2018-08-25T00:32:26.628Z,14.09
2018-08-25T00:35:00.288Z,14.14
2018-08-25T00:37:34.399Z,14.16
2018-08-25T00:40:07.696Z,14.15
2018-08-25T00:42:41.911Z,14.15
2018-08-25T00:45:21.983Z,14.20
2018-08-25T00:48:04.570Z,14.28
2018-08-25T00:50:42.663Z,14.22
2018-08-25T00:56:00.133Z,14.32
2018-08-25T00:58:34.397Z,14.19
2018-08-25T01:03:44.256Z,14.30
2018-08-25T01:06:19.270Z,14.30
2018-08-25T01:08:53.459Z,14.17
2018-08-25T01:11:27.029Z,14.08
2018-08-25T01:14:02.856Z,14.05
2018-08-25T01:16:37.767Z,14.05
2018-08-25T01:21:50.551Z,13.97
2018-08-25T01:24:23.383Z,13.90
2018-08-25T01:26:56.782Z,13.86
2018-08-25T01:29:29.987Z,13.84
2018-08-25T01:32:03.076Z,13.87
2018-08-25T01:34:36.153Z,13.90
2018-08-25T01:37:09.278Z,13.92
2018-08-25T01:39:43.456Z,13.95
2018-08-25T01:44:55.070Z,14.07
2018-08-25T01:47:29.591Z,14.09
2018-08-25T01:50:02.319Z,14.15
2018-08-25T01:52:36.439Z,14.20
2018-08-25T01:55:10.830Z,14.17
2018-08-25T01:57:45.907Z,14.18
2018-08-25T02:00:18.884Z,14.18
2018-08-25T02:02:52.333Z,14.16
2018-08-25T02:05:26.132Z,14.15
2018-08-25T02:07:59.338Z,14.14
2018-08-25T02:14:14.933Z,14.17
2018-08-25T02:19:24.209Z,14.17
2018-08-25T02:21:57.627Z,14.13
2018-08-25T02:24:31.082Z,14.14
2018-08-25T02:29:41.146Z,14.17
2018-08-25T02:32:15.039Z,14.16
2018-08-25T02:34:48.238Z,14.20
2018-08-25T02:37:22.592Z,14.13
2018-08-25T02:39:55.929Z,14.09
2018-08-25T02:42:29.332Z,14.06
2018-08-25T02:45:03.297Z,14.05
2018-08-25T02:47:39.579Z,14.03
2018-08-25T02:52:50.432Z,14.02
2018-08-25T02:57:59.067Z,13.95
2018-08-25T03:03:11.356Z,13.98
2018-08-25T03:05:44.297Z,13.86
2018-08-25T03:08:17.985Z,13.81
2018-08-25T03:13:29.278Z,13.90
2018-08-25T03:18:39.630Z,14.09
2018-08-25T03:21:13.738Z,14.14
2018-08-25T03:23:48.075Z,14.13
2018-08-25T03:26:23.328Z,14.09
2018-08-25T03:31:34.903Z,14.10
2018-08-25T03:34:08.982Z,14.21
2018-08-25T03:36:42.223Z,14.15
2018-08-25T03:39:15.754Z,14.19
2018-08-25T03:41:50.367Z,14.17
2018-08-25T03:47:01.121Z,14.27
2018-08-25T03:52:13.721Z,14.16
2018-08-25T03:54:47.907Z,14.15
2018-08-25T03:57:21.629Z,14.10
2018-08-25T03:59:54.522Z,14.12
2018-08-25T04:02:27.383Z,14.08
2018-08-25T04:05:00.641Z,14.01
2018-08-25T04:07:33.041Z,13.97
2018-08-25T04:10:06.435Z,13.97
2018-08-25T04:12:41.411Z,13.99
2018-08-25T04:17:52.075Z,13.91
2018-08-25T04:20:25.579Z,13.93
2018-08-25T04:22:59.979Z,13.90
2018-08-25T04:28:09.590Z,13.98
2018-08-25T04:30:43.817Z,13.91
2018-08-25T04:35:57.837Z,13.84
2018-08-25T04:38:30.864Z,13.82
2018-08-25T04:41:04.981Z,13.81
2018-08-25T04:43:39.290Z,13.84
2018-08-25T04:46:12.949Z,13.85
2018-08-25T04:48:45.872Z,13.90
2018-08-25T04:53:55.887Z,14.02
2018-08-25T04:56:28.981Z,14.09
2018-08-25T04:59:03.726Z,14.14
2018-08-25T05:01:36.340Z,14.16
2018-08-25T05:06:45.807Z,14.28
2018-08-25T05:09:18.839Z,14.29
2018-08-25T05:14:28.169Z,14.38
2018-08-25T05:17:01.037Z,14.39
2018-08-25T05:19:34.650Z,14.35
2018-08-25T05:22:07.699Z,14.44
2018-08-25T05:24:43.478Z,14.50
2018-08-25T05:27:16.891Z,14.56
2018-08-25T05:29:52.060Z,14.54
2018-08-25T05:35:01.479Z,14.85
2018-08-25T05:37:34.517Z,15.01
2018-08-25T05:42:43.829Z,14.87
2018-08-25T05:45:17.075Z,14.70
2018-08-25T05:47:50.484Z,15.03
2018-08-25T06:06:00.990Z,14.65
2018-08-25T06:08:33.475Z,14.73
2018-08-25T06:11:06.416Z,14.92
2018-08-25T06:18:52.901Z,15.36
2018-08-25T06:21:26.130Z,15.52
2018-08-25T06:23:59.280Z,15.65
2018-08-25T06:26:30.153Z,15.68
2018-08-25T06:29:03.936Z,15.68
2018-08-25T06:31:37.559Z,15.92
2018-08-25T06:34:10.758Z,15.96
2018-08-25T06:36:43.659Z,15.76
2018-08-25T06:41:53.049Z,15.61
2018-08-25T06:47:05.463Z,15.69
2018-08-25T06:52:16.605Z,15.84
2018-08-25T06:57:26.407Z,15.90
2018-08-25T07:02:36.615Z,15.80
2018-08-25T07:05:09.451Z,15.70
2018-08-25T07:07:43.198Z,15.72
2018-08-25T07:10:15.886Z,15.60
2018-08-25T07:12:49.294Z,15.66
2018-08-25T07:15:21.843Z,15.67
2018-08-25T07:17:54.711Z,15.69
2018-08-25T07:25:42.178Z,16.09
2018-08-25T07:28:15.224Z,16.25
2018-08-25T07:30:48.238Z,15.95
2018-08-25T07:33:20.867Z,15.88
2018-08-25T07:35:53.182Z,15.73
2018-08-25T07:38:26.120Z,15.86
2018-08-25T07:41:02.970Z,15.87
2018-08-25T07:46:14.350Z,16.10
2018-08-25T07:48:47.153Z,16.20
2018-08-25T07:56:33.459Z,16.47
2018-08-25T07:59:07.586Z,16.79
2018-08-25T08:01:40.642Z,16.59
2018-08-25T08:04:13.183Z,16.46
2018-08-25T08:06:46.936Z,16.51
2018-08-25T08:11:57.328Z,16.89
2018-08-25T08:14:31.382Z,17.17
2018-08-25T08:17:04.092Z,17.43
2018-08-25T08:19:38.548Z,17.43
2018-08-25T08:22:11.654Z,17.55
2018-08-25T08:27:21.655Z,17.30
2018-08-25T08:29:54.826Z,17.40
2018-08-25T08:32:27.187Z,17.18
2018-08-25T08:40:12.392Z,17.44
2018-08-25T08:45:22.284Z,17.63
2018-08-25T08:47:55.096Z,17.64
2018-08-25T08:50:29.015Z,17.78
2018-08-25T08:53:02.326Z,17.77
2018-08-25T08:55:36.095Z,17.73
2018-08-25T08:58:10.845Z,17.52
2018-08-25T09:03:19.679Z,17.33
2018-08-25T09:05:53.943Z,17.39
2018-08-25T09:16:20.270Z,18.05
2018-08-25T09:18:53.291Z,18.20
2018-08-25T09:21:26.216Z,18.33
2018-08-25T09:24:00.235Z,18.41
2018-08-25T09:26:32.838Z,18.38
2018-08-25T09:29:06.595Z,18.19
2018-08-25T09:31:40.822Z,18.14
2018-08-25T09:34:14.307Z,17.82
2018-08-25T09:36:47.453Z,17.84
2018-08-25T09:39:20.733Z,17.76
2018-08-25T09:44:32.468Z,17.83
2018-08-25T09:47:05.566Z,17.76
2018-08-25T09:52:34.594Z,17.61
2018-08-25T09:55:09.391Z,17.58
2018-08-25T09:57:43.310Z,17.47
2018-08-25T10:02:53.889Z,17.79
2018-08-25T10:08:04.127Z,17.92
2018-08-25T10:10:37.191Z,18.08
2018-08-25T10:15:49.707Z,17.94
2018-08-25T10:18:24.259Z,18.09
2018-08-25T10:20:57.466Z,18.41
2018-08-25T10:23:30.615Z,18.83
2018-08-25T10:26:03.524Z,18.63
2018-08-25T10:28:36.406Z,18.53
2018-08-25T10:31:09.588Z,18.55
2018-08-25T10:33:43.091Z,18.22
2018-08-25T10:36:16.386Z,17.84
2018-08-25T10:41:26.417Z,18.28
2018-08-25T10:46:34.615Z,18.37
2018-08-25T10:51:45.310Z,18.23
2018-08-25T10:54:21.981Z,18.00
2018-08-25T10:56:55.392Z,17.76
2018-08-25T10:59:28.479Z,18.03
2018-08-25T11:02:01.787Z,18.23
2018-08-25T11:07:10.524Z,18.42
2018-08-25T11:09:43.490Z,18.59
2018-08-25T11:12:17.019Z,18.44
2018-08-25T11:14:50.006Z,18.82
2018-08-25T11:19:59.614Z,19.92
2018-08-25T11:22:34.253Z,19.02
2018-08-25T11:25:07.301Z,18.98
2018-08-25T11:27:40.639Z,19.74
2018-08-25T11:30:13.502Z,20.00
2018-08-25T11:32:47.341Z,19.90
2018-08-25T11:35:20.013Z,19.32
2018-08-25T11:40:30.154Z,20.06
2018-08-25T11:45:40.811Z,19.94
2018-08-25T11:49:39.156Z,19.69
2018-08-25T11:52:11.976Z,19.65
2018-08-25T11:54:45.941Z,19.10
2018-08-25T11:57:18.992Z,19.19
2018-08-25T11:59:54.869Z,19.30
2018-08-25T12:02:28.013Z,19.21
2018-08-25T12:05:02.205Z,19.40
2018-08-25T12:07:36.542Z,19.80
2018-08-25T12:10:11.000Z,19.70
2018-08-25T12:12:44.751Z,20.08
2018-08-25T12:15:18.446Z,20.13
2018-08-25T12:17:55.013Z,19.57
2018-08-25T12:20:28.770Z,19.70
2018-08-25T12:23:02.512Z,20.24
2018-08-25T12:25:36.284Z,19.69
2018-08-25T12:28:10.680Z,19.71
2018-08-25T12:33:20.291Z,18.02
2018-08-25T12:35:54.421Z,17.22
2018-08-25T12:38:29.684Z,16.68
2018-08-25T12:41:01.994Z,16.10
2018-08-25T12:43:35.410Z,15.55
2018-08-25T12:46:08.589Z,15.37
2018-08-25T12:48:42.330Z,15.58
2018-08-25T12:51:15.560Z,15.46
2018-08-25T12:53:52.079Z,15.51
2018-08-25T12:56:27.898Z,15.42
2018-08-25T13:01:37.779Z,15.92
2018-08-25T13:04:12.265Z,15.90
2018-08-25T13:06:46.317Z,15.88
2018-08-25T13:09:19.674Z,16.03
2018-08-25T13:11:52.395Z,16.13
2018-08-25T13:14:27.171Z,16.08
2018-08-25T13:16:59.852Z,15.77
2018-08-25T13:19:33.672Z,15.89
2018-08-25T13:22:06.457Z,15.70
2018-08-25T13:24:40.975Z,15.39
2018-08-25T13:27:14.032Z,15.04
2018-08-25T13:29:46.540Z,14.96
2018-08-25T13:34:56.516Z,14.89
2018-08-25T13:37:32.694Z,14.71
2018-08-25T13:40:06.196Z,14.21
2018-08-25T13:42:39.070Z,14.16
2018-08-25T13:45:16.288Z,14.29
2018-08-25T13:47:48.859Z,14.35
2018-08-25T13:50:21.682Z,14.19
2018-08-25T13:52:54.814Z,14.10
2018-08-25T13:55:29.333Z,14.21
2018-08-25T13:58:02.719Z,14.08
2018-08-25T14:00:35.518Z,13.98
2018-08-25T14:03:08.600Z,13.74
2018-08-25T14:05:41.844Z,13.59
2018-08-25T14:08:15.215Z,13.48
2018-08-25T14:10:47.878Z,13.49
2018-08-25T14:13:20.619Z,13.33
2018-08-25T14:15:54.220Z,13.38
2018-08-25T14:21:03.311Z,13.22
2018-08-25T14:23:36.386Z,13.23
2018-08-25T14:28:45.653Z,13.07
2018-08-25T14:33:55.038Z,12.99
2018-08-25T14:36:28.376Z,12.99
2018-08-25T14:39:02.492Z,12.93
2018-08-25T14:41:37.548Z,12.98
2018-08-25T14:44:10.651Z,12.95
2018-08-25T14:46:43.790Z,12.93
2018-08-25T14:49:16.854Z,12.83
2018-08-25T14:54:26.775Z,12.87
2018-08-25T14:56:59.961Z,12.72
2018-08-25T14:59:33.117Z,12.73
2018-08-25T15:02:06.568Z,12.63
2018-08-25T15:07:17.421Z,12.74
2018-08-25T15:09:50.680Z,12.62
2018-08-25T15:12:23.812Z,12.57
2018-08-25T15:14:56.861Z,12.56
2018-08-25T15:20:07.364Z,12.43
2018-08-25T15:25:21.854Z,12.43
2018-08-25T15:27:55.020Z,12.44
2018-08-25T15:33:04.450Z,12.40
2018-08-25T15:35:36.009Z,12.41
2018-08-25T15:38:10.291Z,12.39
2018-08-25T15:40:43.475Z,12.40
2018-08-25T15:43:16.268Z,12.34
2018-08-25T15:45:48.908Z,12.35
2018-08-25T15:51:02.756Z,12.32
2018-08-25T15:53:36.591Z,12.35
2018-08-25T15:56:09.958Z,12.34
2018-08-25T16:01:19.471Z,12.30
2018-08-25T16:03:54.402Z,12.33
2018-08-25T16:09:04.359Z,12.34
2018-08-25T16:11:37.567Z,12.28
2018-08-25T16:14:10.545Z,12.35
2018-08-25T16:16:42.053Z,12.39
2018-08-25T16:19:14.928Z,12.59
2018-08-25T16:21:49.071Z,12.63
2018-08-25T16:24:22.985Z,12.64
2018-08-25T16:26:55.901Z,12.72
2018-08-25T16:29:28.814Z,12.66
2018-08-25T16:32:01.632Z,12.72
2018-08-25T16:37:14.143Z,12.77
2018-08-25T16:42:23.390Z,12.79
2018-08-25T16:44:56.053Z,12.77
2018-08-25T16:47:32.429Z,12.71
2018-08-25T16:50:06.362Z,12.66
2018-08-25T16:52:40.058Z,12.71
2018-08-25T16:57:49.908Z,12.68
2018-08-25T17:00:23.460Z,12.70
2018-08-25T17:05:36.692Z,12.76
2018-08-25T17:08:09.929Z,12.62
2018-08-25T17:10:42.692Z,12.54
2018-08-25T17:13:15.495Z,12.49
2018-08-25T17:18:24.143Z,12.59
2018-08-25T17:20:57.394Z,12.47
2018-08-25T17:23:31.748Z,12.43
2018-08-25T17:26:04.374Z,12.40
2018-08-25T17:31:14.743Z,12.34
2018-08-25T17:33:49.288Z,12.40
2018-08-25T17:36:22.308Z,12.32
2018-08-25T17:38:56.581Z,12.23
2018-08-25T17:41:30.118Z,12.20
2018-08-25T17:44:04.619Z,12.24
2018-08-25T17:46:38.181Z,12.18
2018-08-25T17:49:11.686Z,12.18
2018-08-25T17:51:45.639Z,12.21
2018-08-25T17:54:21.678Z,12.16
2018-08-25T17:56:57.205Z,12.06
2018-08-25T17:59:31.910Z,12.00
2018-08-25T18:02:05.807Z,11.94
2018-08-25T18:07:16.444Z,11.85
2018-08-25T18:15:05.251Z,12.02
2018-08-25T18:17:41.051Z,11.94
2018-08-25T18:22:54.439Z,11.91
2018-08-25T18:25:27.668Z,11.93
2018-08-25T18:28:01.622Z,11.89
2018-08-25T18:33:13.297Z,11.88
2018-08-25T18:35:46.046Z,11.88
2018-08-25T18:38:22.349Z,11.96
2018-08-25T18:40:55.314Z,11.91
2018-08-25T18:43:28.441Z,11.85
2018-08-25T18:46:02.601Z,11.79
2018-08-25T18:48:36.712Z,11.77
2018-08-25T18:51:10.394Z,11.74
2018-08-25T18:56:23.097Z,11.73
2018-08-25T18:58:57.763Z,11.73
2018-08-25T19:01:33.042Z,11.71
2018-08-25T19:04:10.120Z,11.79
2018-08-25T19:06:43.282Z,11.77
2018-08-25T19:09:16.799Z,11.77
2018-08-25T19:11:49.729Z,11.77
2018-08-25T19:14:23.673Z,11.72
2018-08-25T19:16:56.612Z,11.76
2018-08-25T19:19:29.477Z,11.81
2018-08-25T19:22:01.935Z,11.82
2018-08-25T19:24:35.463Z,11.78
2018-08-25T19:27:08.204Z,11.78
2018-08-25T19:29:42.482Z,11.82
2018-08-25T19:32:17.083Z,11.84
2018-08-25T19:34:49.220Z,11.86
2018-08-25T19:37:21.916Z,11.84
2018-08-25T19:39:57.124Z,11.85
2018-08-25T19:42:29.777Z,11.90
2018-08-25T19:45:01.827Z,11.96
2018-08-25T19:47:34.676Z,11.89
2018-08-25T19:50:12.314Z,11.88
2018-08-25T19:52:44.825Z,11.81
2018-08-25T19:55:17.016Z,11.77
2018-08-25T19:57:49.323Z,11.79
2018-08-25T20:00:23.607Z,11.88
2018-08-25T20:02:56.907Z,11.86
2018-08-25T20:05:30.780Z,11.89
2018-08-25T20:08:03.093Z,11.89
2018-08-25T20:10:35.183Z,11.90
2018-08-25T20:13:07.298Z,11.84
2018-08-25T20:15:39.467Z,11.68
2018-08-25T20:18:11.757Z,11.64
2018-08-25T20:20:46.054Z,11.63
2018-08-25T20:23:18.292Z,11.58
2018-08-25T20:25:51.714Z,11.54
2018-08-25T20:28:24.001Z,11.56
2018-08-25T20:31:01.311Z,11.53
2018-08-25T20:33:34.198Z,11.51
2018-08-25T20:36:08.023Z,11.51
2018-08-25T20:38:41.558Z,11.50
2018-08-25T20:41:13.533Z,11.52
2018-08-25T20:43:45.344Z,11.53
2018-08-25T20:46:18.541Z,11.54
2018-08-25T20:48:53.053Z,11.57
2018-08-25T20:51:25.534Z,11.60
2018-08-25T20:53:59.990Z,11.59
2018-08-25T20:56:32.983Z,11.58
2018-08-25T20:59:04.100Z,11.57
2018-08-25T21:01:36.241Z,11.56
2018-08-25T21:04:17.033Z,11.57
2018-08-25T21:06:49.419Z,11.58
2018-08-25T21:09:21.912Z,11.59
2018-08-25T21:11:54.488Z,11.67
2018-08-25T21:14:26.629Z,11.68
2018-08-25T21:17:00.270Z,11.72
2018-08-25T21:19:32.005Z,11.86
2018-08-25T21:22:03.980Z,11.94
2018-08-25T21:24:35.949Z,12.00
2018-08-25T21:27:09.312Z,11.88
2018-08-25T21:29:41.495Z,11.85
2018-08-25T21:32:14.769Z,11.69
2018-08-25T21:34:47.463Z,11.68
2018-08-25T21:37:19.412Z,11.60
2018-08-25T21:39:51.683Z,11.54
2018-08-25T21:42:23.756Z,11.39
2018-08-25T21:44:55.063Z,11.36
2018-08-25T21:47:30.709Z,11.37
2018-08-25T21:50:02.335Z,11.34
2018-08-25T21:52:35.427Z,11.32
2018-08-25T21:55:07.824Z,11.39
2018-08-25T21:57:39.559Z,11.38
2018-08-25T22:00:11.265Z,11.34
2018-08-25T22:02:46.928Z,11.32
2018-08-25T22:05:18.813Z,11.35
2018-08-25T22:07:54.262Z,11.28
2018-08-25T22:10:26.829Z,11.24
2018-08-25T22:12:59.839Z,11.21
2018-08-25T22:15:32.028Z,11.26
2018-08-25T22:18:03.818Z,11.17
2018-08-25T22:20:35.761Z,11.09
2018-08-25T22:23:07.966Z,11.06
2018-08-25T22:25:40.949Z,11.07
2018-08-25T22:28:16.583Z,11.02
2018-08-25T22:30:48.611Z,10.96
2018-08-25T22:33:21.121Z,10.87
2018-08-25T22:35:53.302Z,10.79
2018-08-25T22:38:26.427Z,10.75
2018-08-25T22:40:58.746Z,10.72
2018-08-25T22:43:30.760Z,10.72
2018-08-25T22:46:02.810Z,10.71
2018-08-25T22:48:35.296Z,10.75
2018-08-25T22:51:07.750Z,10.76
2018-08-25T22:53:39.898Z,10.72
2018-08-25T22:56:12.026Z,10.72
2018-08-25T22:58:44.799Z,10.68
2018-08-25T23:01:18.854Z,10.70
2018-08-25T23:03:51.096Z,10.67
2018-08-25T23:06:23.519Z,10.61
2018-08-25T23:08:55.475Z,10.61
2018-08-25T23:11:27.639Z,10.60
2018-08-25T23:14:00.711Z,10.58
2018-08-25T23:16:32.973Z,10.55
2018-08-25T23:19:04.163Z,10.52
2018-08-25T23:21:36.373Z,10.47
2018-08-25T23:24:09.627Z,10.52
2018-08-25T23:26:42.459Z,10.48
2018-08-25T23:29:14.334Z,10.45
2018-08-25T23:31:46.296Z,10.50
2018-08-25T23:34:18.251Z,10.45
2018-08-25T23:36:52.826Z,10.46
2018-08-25T23:39:25.061Z,10.43
2018-08-25T23:41:57.128Z,10.49
2018-08-25T23:44:28.727Z,10.49
2018-08-25T23:47:00.906Z,10.55
2018-08-25T23:49:32.731Z,10.52
2018-08-25T23:52:05.023Z,10.55
2018-08-25T23:54:36.940Z,10.56
2018-08-25T23:57:09.280Z,10.55
2018-08-25T23:59:41.197Z,10.60
